sensor_id;sensor_type;location;lat;lon;timestamp;P1;durP1;ratioP1;P2;durP2;ratioP2
46110;SDS011;31849;55.992;37.252;2022-09-27T07:06:33;26.15;;;13.52;;
46110;SDS011;31849;55.992;37.252;2022-09-27T07:11:38;22.88;;;14.25;;
46110;SDS011;31849;55.992;37.252;2022-09-27T07:16:45;16.00;;;11.57;;
46110;SDS011;31849;55.992;37.252;2022-09-27T07:21:50;24.17;;;14.48;;
46110;SDS011;31849;55.992;37.252;2022-09-27T07:26:55;22.02;;;14.07;;
46110;SDS011;31849;55.992;37.252;2022-09-27T07:31:59;16.77;;;12.80;;
46110;SDS011;31849;55.992;37.252;2022-09-27T07:37:05;15.65;;;11.30;;
46110;SDS011;31849;55.992;37.252;2022-09-27T07:42:09;18.23;;;11.15;;
46110;SDS011;31849;55.992;37.252;2022-09-27T07:47:13;19.52;;;12.93;;
46110;SDS011;31849;55.992;37.252;2022-09-27T07:57:22;21.40;;;13.17;;
46110;SDS011;31849;55.992;37.252;2022-09-27T08:02:27;17.77;;;13.27;;
46110;SDS011;31849;55.992;37.252;2022-09-27T08:07:36;16.77;;;12.43;;
46110;SDS011;31849;55.992;37.252;2022-09-27T08:12:40;19.05;;;14.00;;
46110;SDS011;31849;55.992;37.252;2022-09-27T08:17:44;18.35;;;12.65;;
46110;SDS011;31849;55.992;37.252;2022-09-27T08:22:49;18.30;;;13.93;;
46110;SDS011;31849;55.992;37.252;2022-09-27T08:27:55;15.43;;;11.85;;
46110;SDS011;31849;55.992;37.252;2022-09-27T08:33:00;19.05;;;13.75;;
46110;SDS011;31849;55.992;37.252;2022-09-27T08:38:05;23.33;;;14.23;;
46110;SDS011;31849;55.992;37.252;2022-09-27T08:43:11;18.85;;;13.23;;
46110;SDS011;31849;55.992;37.252;2022-09-27T08:48:22;19.88;;;14.77;;
46110;SDS011;31849;55.992;37.252;2022-09-27T08:53:31;21.60;;;15.73;;
46110;SDS011;31849;55.992;37.252;2022-09-27T08:58:40;29.33;;;20.58;;
46110;SDS011;31849;55.992;37.252;2022-09-27T09:03:51;17.52;;;15.15;;
46110;SDS011;31849;55.992;37.252;2022-09-27T09:09:04;17.17;;;13.55;;
46110;SDS011;31849;55.992;37.252;2022-09-27T09:14:30;18.60;;;15.25;;
46110;SDS011;31849;55.992;37.252;2022-09-27T09:19:53;18.40;;;15.93;;
46110;SDS011;31849;55.992;37.252;2022-09-27T09:25:18;22.17;;;16.30;;
46110;SDS011;31849;55.992;37.252;2022-09-27T09:30:31;17.83;;;14.57;;
46110;SDS011;31849;55.992;37.252;2022-09-27T09:35:44;16.88;;;14.57;;
46110;SDS011;31849;55.992;37.252;2022-09-27T09:40:55;15.32;;;12.65;;
46110;SDS011;31849;55.992;37.252;2022-09-27T09:46:06;14.82;;;12.85;;
46110;SDS011;31849;55.992;37.252;2022-09-27T09:51:16;14.23;;;12.25;;
46110;SDS011;31849;55.992;37.252;2022-09-27T09:56:27;14.95;;;11.45;;
46110;SDS011;31849;55.992;37.252;2022-09-27T10:01:35;16.08;;;12.35;;
46110;SDS011;31849;55.992;37.252;2022-09-27T10:06:43;12.27;;;10.73;;
46110;SDS011;31849;55.992;37.252;2022-09-27T10:11:50;12.38;;;9.80;;
46110;SDS011;31849;55.992;37.252;2022-09-27T10:16:54;10.00;;;8.82;;
46110;SDS011;31849;55.992;37.252;2022-09-27T10:22:04;12.68;;;10.10;;
46110;SDS011;31849;55.992;37.252;2022-09-27T10:32:23;10.32;;;8.23;;
46110;SDS011;31849;55.992;37.252;2022-09-27T10:37:28;9.98;;;7.95;;
46110;SDS011;31849;55.992;37.252;2022-09-27T10:42:35;12.10;;;7.72;;
46110;SDS011;31849;55.992;37.252;2022-09-27T10:47:39;13.13;;;7.88;;
46110;SDS011;31849;55.992;37.252;2022-09-27T10:52:43;9.80;;;7.70;;
46110;SDS011;31849;55.992;37.252;2022-09-27T10:57:49;10.70;;;7.28;;
46110;SDS011;31849;55.992;37.252;2022-09-27T11:02:56;10.75;;;7.90;;
46110;SDS011;31849;55.992;37.252;2022-09-27T11:08:20;7.72;;;6.75;;
46110;SDS011;31849;55.992;37.252;2022-09-27T11:18:36;9.07;;;7.00;;
46110;SDS011;31849;55.992;37.252;2022-09-27T11:23:53;9.82;;;7.25;;
46110;SDS011;31849;55.992;37.252;2022-09-27T11:29:16;11.52;;;8.63;;
46110;SDS011;31849;55.992;37.252;2022-09-27T11:34:30;10.00;;;7.97;;
46110;SDS011;31849;55.992;37.252;2022-09-27T11:39:58;10.93;;;7.28;;
46110;SDS011;31849;55.992;37.252;2022-09-27T11:45:17;10.93;;;7.45;;
46110;SDS011;31849;55.992;37.252;2022-09-27T11:50:57;11.38;;;7.78;;
46110;SDS011;31849;55.992;37.252;2022-09-27T11:56:15;9.85;;;6.25;;
46110;SDS011;31849;55.992;37.252;2022-09-27T12:01:32;10.38;;;6.40;;
46110;SDS011;31849;55.992;37.252;2022-09-27T12:06:46;8.43;;;5.20;;
46110;SDS011;31849;55.992;37.252;2022-09-27T12:11:57;8.70;;;4.95;;
46110;SDS011;31849;55.992;37.252;2022-09-27T12:17:09;8.82;;;5.78;;
46110;SDS011;31849;55.992;37.252;2022-09-27T12:22:18;10.43;;;7.05;;
46110;SDS011;31849;55.992;37.252;2022-09-27T12:27:45;6.70;;;5.25;;
46110;SDS011;31849;55.992;37.252;2022-09-27T12:33:05;7.68;;;4.82;;
46110;SDS011;31849;55.992;37.252;2022-09-27T12:38:12;8.48;;;4.40;;
46110;SDS011;31849;55.992;37.252;2022-09-27T12:43:20;7.47;;;4.70;;
46110;SDS011;31849;55.992;37.252;2022-09-27T12:48:28;6.28;;;4.40;;
46110;SDS011;31849;55.992;37.252;2022-09-27T12:53:42;11.40;;;5.10;;
46110;SDS011;31849;55.992;37.252;2022-09-27T13:04:32;6.85;;;4.97;;
46110;SDS011;31849;55.992;37.252;2022-09-27T13:15:28;6.28;;;4.40;;
46110;SDS011;31849;55.992;37.252;2022-09-27T13:20:38;7.53;;;5.07;;
46110;SDS011;31849;55.992;37.252;2022-09-27T13:25:50;6.90;;;4.22;;
46110;SDS011;31849;55.992;37.252;2022-09-27T13:30:57;5.65;;;3.53;;
46110;SDS011;31849;55.992;37.252;2022-09-27T13:36:07;8.27;;;3.47;;
46110;SDS011;31849;55.992;37.252;2022-09-27T13:41:38;6.22;;;3.42;;
46110;SDS011;31849;55.992;37.252;2022-09-27T13:47:01;5.80;;;3.80;;
46110;SDS011;31849;55.992;37.252;2022-09-27T13:52:19;6.68;;;3.92;;
46110;SDS011;31849;55.992;37.252;2022-09-27T13:57:40;6.18;;;3.78;;
46110;SDS011;31849;55.992;37.252;2022-09-27T14:02:54;5.88;;;4.10;;
46110;SDS011;31849;55.992;37.252;2022-09-27T14:08:04;5.78;;;4.07;;
46110;SDS011;31849;55.992;37.252;2022-09-27T14:13:18;7.13;;;4.70;;
46110;SDS011;31849;55.992;37.252;2022-09-27T14:18:22;7.65;;;4.28;;
46110;SDS011;31849;55.992;37.252;2022-09-27T14:23:28;5.95;;;4.50;;
46110;SDS011;31849;55.992;37.252;2022-09-27T14:28:39;8.13;;;4.35;;
46110;SDS011;31849;55.992;37.252;2022-09-27T14:33:44;8.25;;;4.00;;
46110;SDS011;31849;55.992;37.252;2022-09-27T14:38:49;6.43;;;3.53;;
46110;SDS011;31849;55.992;37.252;2022-09-27T14:43:53;7.05;;;3.75;;
46110;SDS011;31849;55.992;37.252;2022-09-27T14:48:57;5.07;;;3.65;;
46110;SDS011;31849;55.992;37.252;2022-09-27T14:59:12;13.05;;;4.10;;
46110;SDS011;31849;55.992;37.252;2022-09-27T15:04:18;6.88;;;4.00;;
46110;SDS011;31849;55.992;37.252;2022-09-27T15:09:26;6.65;;;4.00;;
46110;SDS011;31849;55.992;37.252;2022-09-27T15:14:34;7.38;;;4.18;;
46110;SDS011;31849;55.992;37.252;2022-09-27T15:19:54;7.45;;;4.80;;
46110;SDS011;31849;55.992;37.252;2022-09-27T15:25:06;9.68;;;5.78;;
46110;SDS011;31849;55.992;37.252;2022-09-27T15:30:23;9.60;;;5.82;;
46110;SDS011;31849;55.992;37.252;2022-09-27T15:35:31;11.10;;;5.13;;
46110;SDS011;31849;55.992;37.252;2022-09-27T15:46:27;9.35;;;5.38;;
46110;SDS011;31849;55.992;37.252;2022-09-27T15:51:44;8.95;;;4.80;;
46110;SDS011;31849;55.992;37.252;2022-09-27T15:56:51;6.88;;;4.70;;
46110;SDS011;31849;55.992;37.252;2022-09-27T16:01:59;10.02;;;4.20;;
46110;SDS011;31849;55.992;37.252;2022-09-27T16:07:09;7.40;;;4.30;;
46110;SDS011;31849;55.992;37.252;2022-09-27T16:12:16;6.75;;;4.25;;
46110;SDS011;31849;55.992;37.252;2022-09-27T16:17:19;10.70;;;4.75;;
46110;SDS011;31849;55.992;37.252;2022-09-27T16:27:29;7.82;;;4.80;;
46110;SDS011;31849;55.992;37.252;2022-09-27T16:32:33;10.88;;;5.80;;
46110;SDS011;31849;55.992;37.252;2022-09-27T16:37:42;9.85;;;5.90;;
46110;SDS011;31849;55.992;37.252;2022-09-27T16:42:48;15.23;;;7.38;;
46110;SDS011;31849;55.992;37.252;2022-09-27T16:47:51;12.38;;;8.40;;
46110;SDS011;31849;55.992;37.252;2022-09-27T16:52:55;14.30;;;9.15;;
46110;SDS011;31849;55.992;37.252;2022-09-27T16:58:02;15.15;;;9.50;;
46110;SDS011;31849;55.992;37.252;2022-09-27T17:03:08;12.77;;;8.02;;
46110;SDS011;31849;55.992;37.252;2022-09-27T17:08:12;14.23;;;8.40;;
46110;SDS011;31849;55.992;37.252;2022-09-27T17:13:18;18.95;;;10.32;;
46110;SDS011;31849;55.992;37.252;2022-09-27T17:18:22;17.50;;;9.98;;
46110;SDS011;31849;55.992;37.252;2022-09-27T17:23:27;14.88;;;9.45;;
46110;SDS011;31849;55.992;37.252;2022-09-27T17:28:32;11.82;;;8.32;;
46110;SDS011;31849;55.992;37.252;2022-09-27T17:33:39;14.82;;;8.77;;
46110;SDS011;31849;55.992;37.252;2022-09-27T17:38:45;17.23;;;8.40;;
46110;SDS011;31849;55.992;37.252;2022-09-27T17:43:53;14.40;;;7.65;;
46110;SDS011;31849;55.992;37.252;2022-09-27T17:48:58;15.93;;;7.80;;
46110;SDS011;31849;55.992;37.252;2022-09-27T17:54:20;13.98;;;7.63;;
46110;SDS011;31849;55.992;37.252;2022-09-27T17:59:28;11.30;;;7.50;;
46110;SDS011;31849;55.992;37.252;2022-09-27T18:04:32;13.73;;;8.07;;
46110;SDS011;31849;55.992;37.252;2022-09-27T18:09:36;12.70;;;7.93;;
46110;SDS011;31849;55.992;37.252;2022-09-27T18:14:42;12.05;;;7.18;;
46110;SDS011;31849;55.992;37.252;2022-09-27T18:19:46;11.52;;;7.93;;
46110;SDS011;31849;55.992;37.252;2022-09-27T18:24:50;11.10;;;7.57;;
46110;SDS011;31849;55.992;37.252;2022-09-27T18:29:56;11.88;;;7.10;;
46110;SDS011;31849;55.992;37.252;2022-09-27T18:35:00;10.77;;;7.75;;
46110;SDS011;31849;55.992;37.252;2022-09-27T18:40:04;10.95;;;7.78;;
46110;SDS011;31849;55.992;37.252;2022-09-27T18:45:11;12.07;;;7.38;;
46110;SDS011;31849;55.992;37.252;2022-09-27T18:50:14;12.90;;;7.60;;
46110;SDS011;31849;55.992;37.252;2022-09-27T18:55:18;11.07;;;6.97;;
46110;SDS011;31849;55.992;37.252;2022-09-27T19:00:27;10.75;;;6.68;;
46110;SDS011;31849;55.992;37.252;2022-09-27T19:05:32;11.25;;;7.10;;
46110;SDS011;31849;55.992;37.252;2022-09-27T19:10:37;12.90;;;7.55;;
46110;SDS011;31849;55.992;37.252;2022-09-27T19:15:42;12.60;;;7.03;;
46110;SDS011;31849;55.992;37.252;2022-09-27T19:26:11;10.80;;;7.47;;
46110;SDS011;31849;55.992;37.252;2022-09-27T19:31:19;16.02;;;8.15;;
46110;SDS011;31849;55.992;37.252;2022-09-27T19:36:25;11.63;;;7.38;;
46110;SDS011;31849;55.992;37.252;2022-09-27T19:46:35;12.95;;;8.30;;
46110;SDS011;31849;55.992;37.252;2022-09-27T19:51:40;12.18;;;8.75;;
46110;SDS011;31849;55.992;37.252;2022-09-27T19:56:44;13.55;;;8.50;;
46110;SDS011;31849;55.992;37.252;2022-09-27T20:01:52;11.32;;;8.60;;
46110;SDS011;31849;55.992;37.252;2022-09-27T20:06:56;12.68;;;8.10;;
46110;SDS011;31849;55.992;37.252;2022-09-27T20:12:00;11.68;;;7.85;;
46110;SDS011;31849;55.992;37.252;2022-09-27T20:17:06;11.00;;;8.15;;
46110;SDS011;31849;55.992;37.252;2022-09-27T20:22:11;10.88;;;7.65;;
46110;SDS011;31849;55.992;37.252;2022-09-27T20:27:15;12.27;;;7.33;;
46110;SDS011;31849;55.992;37.252;2022-09-27T20:32:20;11.07;;;8.15;;
46110;SDS011;31849;55.992;37.252;2022-09-27T20:37:29;10.93;;;7.55;;
46110;SDS011;31849;55.992;37.252;2022-09-27T20:47:37;9.52;;;7.30;;
46110;SDS011;31849;55.992;37.252;2022-09-27T20:52:42;14.55;;;7.40;;
46110;SDS011;31849;55.992;37.252;2022-09-27T20:57:45;10.63;;;7.90;;
46110;SDS011;31849;55.992;37.252;2022-09-27T21:02:59;11.98;;;8.30;;
46110;SDS011;31849;55.992;37.252;2022-09-27T21:08:03;12.93;;;7.35;;
46110;SDS011;31849;55.992;37.252;2022-09-27T21:13:07;10.15;;;7.60;;
46110;SDS011;31849;55.992;37.252;2022-09-27T21:18:12;10.20;;;7.05;;
46110;SDS011;31849;55.992;37.252;2022-09-27T21:23:16;8.88;;;6.82;;
46110;SDS011;31849;55.992;37.252;2022-09-27T21:28:19;9.07;;;6.60;;
46110;SDS011;31849;55.992;37.252;2022-09-27T21:33:25;9.00;;;6.20;;
46110;SDS011;31849;55.992;37.252;2022-09-27T21:43:33;8.80;;;5.78;;
46110;SDS011;31849;55.992;37.252;2022-09-27T21:48:40;7.20;;;5.80;;
46110;SDS011;31849;55.992;37.252;2022-09-27T21:53:47;10.55;;;5.75;;
46110;SDS011;31849;55.992;37.252;2022-09-27T21:58:52;8.93;;;5.20;;
46110;SDS011;31849;55.992;37.252;2022-09-27T22:03:59;6.63;;;5.57;;
46110;SDS011;31849;55.992;37.252;2022-09-27T22:09:04;9.27;;;5.07;;
46110;SDS011;31849;55.992;37.252;2022-09-27T22:14:09;12.70;;;6.10;;
46110;SDS011;31849;55.992;37.252;2022-09-27T22:19:15;7.77;;;4.73;;
46110;SDS011;31849;55.992;37.252;2022-09-27T22:24:19;7.97;;;4.70;;
46110;SDS011;31849;55.992;37.252;2022-09-27T22:29:23;6.22;;;4.53;;
46110;SDS011;31849;55.992;37.252;2022-09-27T22:34:29;8.50;;;5.27;;
46110;SDS011;31849;55.992;37.252;2022-09-27T22:39:32;7.32;;;4.80;;
46110;SDS011;31849;55.992;37.252;2022-09-27T22:44:36;6.97;;;4.47;;
46110;SDS011;31849;55.992;37.252;2022-09-27T22:49:41;6.75;;;4.80;;
46110;SDS011;31849;55.992;37.252;2022-09-27T22:54:45;9.10;;;5.30;;
46110;SDS011;31849;55.992;37.252;2022-09-27T22:59:48;9.52;;;5.50;;
46110;SDS011;31849;55.992;37.252;2022-09-27T23:04:54;7.78;;;5.35;;
46110;SDS011;31849;55.992;37.252;2022-09-27T23:09:58;7.20;;;5.70;;
46110;SDS011;31849;55.992;37.252;2022-09-27T23:15:04;9.32;;;6.03;;
46110;SDS011;31849;55.992;37.252;2022-09-27T23:20:10;8.70;;;6.03;;
46110;SDS011;31849;55.992;37.252;2022-09-27T23:25:15;8.75;;;6.13;;
46110;SDS011;31849;55.992;37.252;2022-09-27T23:30:20;8.18;;;5.57;;
46110;SDS011;31849;55.992;37.252;2022-09-27T23:35:31;9.40;;;5.88;;
46110;SDS011;31849;55.992;37.252;2022-09-27T23:40:35;8.00;;;6.57;;
46110;SDS011;31849;55.992;37.252;2022-09-27T23:45:39;8.70;;;6.97;;
46110;SDS011;31849;55.992;37.252;2022-09-27T23:50:44;10.45;;;7.53;;
46110;SDS011;31849;55.992;37.252;2022-09-27T23:55:57;12.50;;;8.05;;
